AirNav   Everest Fuels
 
 362 users online  

1FL7 Barton Regional Medical Center Heliport
Bartow, Florida, USA

GOING TO BARTOW?


FAA INFORMATION EFFECTIVE 07 NOVEMBER 2019

Location

FAA Identifier: 1FL7
Lat/Long: 27-55-08.0900N 081-50-42.2900W
27-55.134833N 081-50.704833W
27.9189139,-81.8450806
(estimated)
Elevation: 107 ft. / 33 m (estimated)
Variation: 04W (1995)
From city: 2 miles SW of BARTOW, FL
Time zone: UTC -5 (UTC -4 during Daylight Saving Time)
Zip code: 33830

Heliport Operations

Heliport use: Private use. Permission required prior to landing
Activation date: 02/2000
Control tower: no
ARTCC: MIAMI CENTER
FSS: SAINT PETERSBURG FLIGHT SERVICE STATION
Attendance: UNATNDD
Wind indicator: lighted
Segmented circle: no
Lights: FOR PERIMETER, TOUCHDOWN, STROBE & WINDCONE LGTS CALL 941-534-7802.

Heliport Communications

WX AWOS-3 at BOW (4 nm NE): 123.775 (863-533-9004)
WX ASOS at GIF (10 nm NE): 133.675 (863-956-2097)
WX AWOS-3PT at LAL (10 nm NW): 118.025 (863-834-2030)
WX AWOS-3 at X07 (12 nm E): 124.225 (863-678-1334)
WX AWOS-3 at PCM (18 nm W): 120.025 (813-764-8259)

Nearby radio navigation aids

VOR radial/distance  VOR name  Freq  Var
LALr113/9.8LAKELAND VORTAC116.0001E

Heliport Services

Runway Information

Helipad H1

Dimensions: 60 x 60 ft. / 18 x 18 m
H1 FINAL APCH & TKOF AREA MEASURES 120 FT BY 120 FT.
Surface: concrete
Runway edge lights: PERI
H1 HAS PERIMETER, TOUCHDOWN & STROBE LGTS.
Latitude: 27-55.134833N
Longitude: 081-50.704833W
Elevation: 107.0 ft.
Traffic pattern: leftleft

Heliport Ownership and Management from official FAA records

Ownership: Privately-owned
Owner: PHIL MINDEN
2200 OSPREY BLVD, 2200 OSPREY BLVD
BARTOW, FL 33830
Phone (863) 519-1402
Manager: CARLOS FELIX
2200 OSPREY BLVD, 2200 OSPREY BLVD
BARTOW, FL 33830
Phone (863) 514-4514
ADDITIONAL CONTACT - CARLOS FELIX - 863-519-1508

Additional Remarks

FOR CD CTC TAMPA APCH AT 813-878-2528

Instrument Procedures

There are no published instrument procedures at 1FL7.

Some nearby airports with instrument procedures:

KBOW - Bartow Executive Airport (4 nm NE)
KGIF - Winter Haven Regional Airport (10 nm NE)
KLAL - Lakeland Linder International Airport (10 nm NW)
X07 - Lake Wales Municipal Airport (12 nm E)
KPCM - Plant City Airport (18 nm W)
 
Loc | Ops | Rwys | IFR | FBO | Links
Com | Nav | Svcs | Stats | Notes

Reliance Aviation
AirBoss

 
Area around 1FL7 (Barton Regional Medical Center Heliport)
 
Road maps at: MapQuest Bing Google
 
Aerial photo
No photo
 
Sectional chart

 
Airport distance calculator
Flying to Barton Regional Medical Center Heliport? Find the distance to fly.

From to 1FL7

Sunrise and sunset
Times for 12-Nov-2019
 Local
(UTC-5)
 Zulu
(UTC)
Morning civil twilight06:2311:23
Sunrise06:4811:48
Sunset17:3622:36
Evening civil twilight18:0023:00

Current date and time
Zulu (UTC)  12-Nov-2019 07:09:22
Local (UTC-5)  12-Nov-2019 02:09:22
 
METAR
KBOW 
4nm E 
120655Z AUTO 00000KT 9SM BKN055 19/19 A3000 RMK AO2
KLAL 
10nm W 
120655Z AUTO 00000KT 10SM SCT046 BKN055 19/18 A3001 RMK AO2 PNO
KGIF 
10nm NE 
120653Z AUTO 05003KT 10SM FEW050 BKN060 20/19 A3002 RMK AO2 SLP162 T02000189
KX07 
12nm E 
120655Z AUTO 00000KT 10SM OVC060 19/19 A3002 RMK A01
KPCM 
18nm W 
120635Z AUTO 00000KT 10SM SCT043 BKN055 20/20 A3004 RMK AO2
TAF
KLAL 
10nm W 
120530Z 1206/1306 VRB03KT P6SM SCT040 SCT200 FM120900 VRB03KT 3SM BR SCT020 SCT035 FM121400 VRB03KT P6SM FEW025 SCT035 FM121800 24005KT P6SM VCSH FEW025 SCT200 FM122000 27006KT P6SM FEW050 BKN110 FM130300 34009KT P6SM OVC015 AMD NOT SKED TIL 121100
NOTAMs
Click for the latest NOTAMs
NOTAMs are issued by the DoD/FAA and will open in a separate window not controlled by AirNav.

 

 
 

Would you like to see your business listed on this page?

 If your business provides an interesting product or service to pilots, flight crews, aircraft, or users of the Barton Regional Medical Center Heliport, you should consider listing it here.  To start the listing process, click on the button below
 
Add a business
 

Other Pages about Barton Regional Medical Center Heliport

Update a link
 
Copyright © AirNav, LLC. All rights reserved. Privacy Policy  Contact